createdAt,value
2016-08-11T00:00:36.020Z,0
2016-08-11T00:01:34.571Z,0
2016-08-11T00:02:35.304Z,0
2016-08-11T00:03:35.300Z,0
2016-08-11T00:04:35.301Z,0
2016-08-11T00:05:35.292Z,0
2016-08-11T00:06:35.304Z,0
2016-08-11T00:07:35.305Z,0
2016-08-11T00:08:36.024Z,0
2016-08-11T00:09:35.288Z,0
2016-08-11T00:10:35.288Z,0
2016-08-11T00:11:34.572Z,0
2016-08-11T00:12:35.288Z,0
2016-08-11T00:13:36.017Z,0
2016-08-11T00:14:35.288Z,0
2016-08-11T00:15:34.562Z,0
2016-08-11T00:16:34.561Z,0
2016-08-11T00:17:35.281Z,0
2016-08-11T00:18:36.001Z,0
2016-08-11T00:19:34.561Z,0
2016-08-11T00:20:35.277Z,0
2016-08-11T00:21:34.563Z,0
2016-08-11T00:22:36.005Z,0
2016-08-11T00:23:35.998Z,0
2016-08-11T00:24:35.986Z,0
2016-08-11T00:25:35.269Z,0
2016-08-11T00:26:35.998Z,0
2016-08-11T00:27:35.266Z,0
2016-08-11T00:28:35.278Z,0
2016-08-11T00:29:35.978Z,0
2016-08-11T00:30:35.989Z,0
2016-08-11T00:31:35.986Z,0
2016-08-11T00:32:35.978Z,0
2016-08-11T00:33:35.257Z,0
2016-08-11T00:34:35.250Z,0
2016-08-11T00:35:35.253Z,0
2016-08-11T00:36:35.978Z,0
2016-08-11T00:37:35.982Z,0
2016-08-11T00:38:35.258Z,0
2016-08-11T00:39:35.262Z,0
2016-08-11T00:40:35.970Z,0
2016-08-11T00:41:35.986Z,0
2016-08-11T00:42:35.285Z,0
2016-08-11T00:43:34.154Z,0
2016-08-11T00:44:35.254Z,0
2016-08-11T00:45:35.974Z,0
2016-08-11T00:46:35.245Z,0
2016-08-11T00:47:35.970Z,0
2016-08-11T00:48:35.966Z,0
2016-08-11T00:49:35.970Z,0
2016-08-11T00:50:35.250Z,0
2016-08-11T00:51:35.962Z,0
2016-08-11T00:52:35.245Z,0
2016-08-11T00:53:35.959Z,0
2016-08-11T00:54:35.235Z,0
2016-08-11T00:55:35.959Z,0
2016-08-11T00:56:35.950Z,0
2016-08-11T00:57:35.235Z,0
2016-08-11T00:58:34.586Z,0
2016-08-11T00:59:35.238Z,0
2016-08-11T01:00:34.507Z,0
2016-08-11T01:01:35.222Z,0
2016-08-11T01:02:35.223Z,0
2016-08-11T01:03:35.234Z,0
2016-08-11T01:04:35.950Z,0
2016-08-11T01:05:35.942Z,0
2016-08-11T01:06:35.270Z,0
2016-08-11T01:07:34.502Z,0
2016-08-11T01:08:35.950Z,0
2016-08-11T01:09:35.222Z,0
2016-08-11T01:10:35.226Z,0
2016-08-11T01:11:34.503Z,0
2016-08-11T01:12:35.934Z,0
2016-08-11T01:13:35.248Z,0
2016-08-11T01:14:35.215Z,0
2016-08-11T01:15:34.483Z,0
2016-08-11T01:16:35.930Z,0
2016-08-11T01:17:34.491Z,0
2016-08-11T01:18:35.211Z,0
2016-08-11T01:19:35.203Z,0
2016-08-11T01:20:35.207Z,0
2016-08-11T01:21:35.198Z,0
2016-08-11T01:22:35.204Z,0
2016-08-11T01:23:35.922Z,0
2016-08-11T01:24:35.943Z,0
2016-08-11T01:25:35.927Z,0
2016-08-11T01:26:35.195Z,0
2016-08-11T01:27:35.919Z,0
2016-08-11T01:28:34.303Z,0
2016-08-11T01:29:35.186Z,0
2016-08-11T01:30:35.195Z,0
2016-08-11T01:31:35.919Z,0
2016-08-11T01:32:35.923Z,0
2016-08-11T01:33:35.902Z,0
2016-08-11T01:34:35.911Z,0
2016-08-11T01:35:35.191Z,0
2016-08-11T01:36:35.912Z,0
2016-08-11T01:37:35.174Z,0
2016-08-11T01:38:34.460Z,0
2016-08-11T01:39:35.899Z,0
2016-08-11T01:40:35.180Z,0
2016-08-11T01:41:35.176Z,0
2016-08-11T01:42:33.740Z,0
2016-08-11T01:44:35.176Z,0
2016-08-11T01:45:35.171Z,0
2016-08-11T01:46:35.167Z,0
2016-08-11T01:47:35.175Z,0
2016-08-11T01:48:35.888Z,0
2016-08-11T01:49:35.172Z,0
2016-08-11T01:50:35.879Z,0
2016-08-11T01:51:35.884Z,0
2016-08-11T01:52:35.880Z,0
2016-08-11T01:53:35.171Z,0
2016-08-11T01:54:35.155Z,0
2016-08-11T01:55:34.439Z,0
2016-08-11T01:56:35.156Z,0
2016-08-11T01:57:35.159Z,0
2016-08-11T01:59:35.153Z,0
2016-08-11T02:00:33.716Z,0
2016-08-11T02:01:34.428Z,0
2016-08-11T02:02:34.429Z,0
2016-08-11T02:03:35.864Z,0
2016-08-11T02:04:34.423Z,0
2016-08-11T02:05:35.864Z,0
2016-08-11T02:06:35.873Z,0
2016-08-11T02:07:35.145Z,0
2016-08-11T02:08:35.868Z,0
2016-08-11T02:09:35.868Z,0
2016-08-11T02:10:34.420Z,0
2016-08-11T02:11:34.424Z,0
2016-08-11T02:12:35.140Z,0
2016-08-11T02:14:35.128Z,0
2016-08-11T02:15:35.133Z,0
2016-08-11T02:16:35.141Z,0
2016-08-11T02:17:35.856Z,0
2016-08-11T02:18:35.853Z,0
2016-08-11T02:19:35.125Z,0
2016-08-11T02:20:35.129Z,0
2016-08-11T02:21:35.137Z,0
2016-08-11T02:22:35.120Z,0
2016-08-11T02:23:35.840Z,0
2016-08-11T02:24:35.133Z,0
2016-08-11T02:25:35.837Z,0
2016-08-11T02:26:35.845Z,0
2016-08-11T02:27:35.112Z,0
2016-08-11T02:29:35.829Z,0
2016-08-11T02:30:34.393Z,0
2016-08-11T02:31:35.828Z,0
2016-08-11T02:32:34.394Z,0
2016-08-11T02:33:35.109Z,0
2016-08-11T02:34:34.390Z,0
2016-08-11T02:35:35.105Z,0
2016-08-11T02:36:35.106Z,0
2016-08-11T02:37:34.379Z,0
2016-08-11T02:38:34.386Z,0
2016-08-11T02:39:35.097Z,0
2016-08-11T02:40:34.374Z,0
2016-08-11T02:41:35.098Z,0
2016-08-11T02:42:35.822Z,0
2016-08-11T02:43:35.103Z,0
2016-08-11T02:44:35.818Z,0
2016-08-11T02:45:34.369Z,0
2016-08-11T02:46:35.815Z,0
2016-08-11T02:47:34.370Z,0
2016-08-11T02:48:34.395Z,0
2016-08-11T02:49:34.358Z,0
2016-08-11T02:50:35.819Z,0
2016-08-11T02:51:35.811Z,0
2016-08-11T02:52:35.083Z,0
2016-08-11T02:53:34.358Z,20
2016-08-11T02:54:35.082Z,16
2016-08-11T02:55:35.810Z,0
2016-08-11T02:56:35.799Z,16
2016-08-11T02:57:34.357Z,16
2016-08-11T02:58:35.094Z,0
2016-08-11T02:59:35.082Z,0
2016-08-11T03:00:35.079Z,0
2016-08-11T03:01:35.799Z,0
2016-08-11T03:02:35.066Z,0
2016-08-11T03:03:34.355Z,0
2016-08-11T03:04:34.359Z,0
2016-08-11T03:05:35.798Z,0
2016-08-11T03:06:35.879Z,16
2016-08-11T03:07:35.063Z,16
2016-08-11T03:08:35.067Z,16
2016-08-11T03:09:35.791Z,0
2016-08-11T03:10:35.782Z,0
2016-08-11T03:11:34.339Z,0
2016-08-11T03:12:35.787Z,0
2016-08-11T03:13:34.346Z,0
2016-08-11T03:14:35.775Z,0
2016-08-11T03:15:35.054Z,0
2016-08-11T03:16:35.051Z,0
2016-08-11T03:17:35.774Z,0
2016-08-11T03:18:35.043Z,0
2016-08-11T03:19:35.045Z,0
2016-08-11T03:20:35.051Z,0
2016-08-11T03:21:35.767Z,0
2016-08-11T03:22:35.047Z,0
2016-08-11T03:23:35.771Z,0
2016-08-11T03:24:35.040Z,0
2016-08-11T03:25:35.034Z,0
2016-08-11T03:26:35.039Z,0
2016-08-11T03:27:34.331Z,0
2016-08-11T03:28:35.768Z,0
2016-08-11T03:29:35.770Z,0
2016-08-11T03:30:35.035Z,0
2016-08-11T03:31:34.307Z,0
2016-08-11T03:32:35.036Z,0
2016-08-11T03:33:34.299Z,0
2016-08-11T03:34:35.744Z,0
2016-08-11T03:35:35.746Z,0
2016-08-11T03:36:35.747Z,0
2016-08-11T03:37:35.022Z,0
2016-08-11T03:38:35.023Z,0
2016-08-11T03:39:35.027Z,0
2016-08-11T03:40:34.295Z,0
2016-08-11T03:41:35.731Z,0
2016-08-11T03:42:35.736Z,0
2016-08-11T03:43:35.021Z,0
2016-08-11T03:44:35.735Z,4
2016-08-11T03:45:34.299Z,0
2016-08-11T03:46:35.728Z,4
2016-08-11T03:47:35.008Z,0
2016-08-11T03:48:35.019Z,4
2016-08-11T03:49:35.724Z,4
2016-08-11T03:50:35.723Z,8
2016-08-11T03:51:35.728Z,8
2016-08-11T03:52:35.012Z,12
2016-08-11T03:53:34.996Z,12
2016-08-11T03:54:34.284Z,16
2016-08-11T03:55:35.732Z,16
2016-08-11T03:56:35.727Z,20
2016-08-11T03:57:34.989Z,20
2016-08-11T03:58:34.994Z,24
2016-08-11T03:59:35.705Z,28
2016-08-11T04:00:35.000Z,28
2016-08-11T04:01:35.000Z,32
2016-08-11T04:02:35.708Z,36
2016-08-11T04:03:34.984Z,44
2016-08-11T04:04:34.984Z,48
2016-08-11T04:05:34.264Z,56
2016-08-11T04:06:35.032Z,60
2016-08-11T04:07:34.980Z,68
2016-08-11T04:08:34.979Z,76
2016-08-11T04:09:34.269Z,84
2016-08-11T04:10:34.256Z,108
2016-08-11T04:11:34.269Z,116
2016-08-11T04:12:34.252Z,100
2016-08-11T04:13:34.968Z,124
2016-08-11T04:14:35.701Z,116
2016-08-11T04:15:34.245Z,120
2016-08-11T04:16:35.694Z,124
2016-08-11T04:17:35.708Z,132
2016-08-11T04:18:35.677Z,140
2016-08-11T04:19:34.968Z,152
2016-08-11T04:20:35.694Z,164
2016-08-11T04:21:34.245Z,176
2016-08-11T04:22:33.520Z,188
2016-08-11T04:23:35.694Z,208
2016-08-11T04:24:35.681Z,224
2016-08-11T04:25:35.681Z,248
2016-08-11T04:26:35.677Z,276
2016-08-11T04:27:34.953Z,300
2016-08-11T04:28:34.238Z,324
2016-08-11T04:29:34.953Z,352
2016-08-11T04:30:34.245Z,372
2016-08-11T04:31:35.666Z,392
2016-08-11T04:32:34.222Z,404
2016-08-11T04:33:34.941Z,412
2016-08-11T04:34:34.938Z,424
2016-08-11T04:35:35.669Z,432
2016-08-11T04:36:35.662Z,448
2016-08-11T04:37:35.670Z,464
2016-08-11T04:38:35.674Z,484
2016-08-11T04:39:35.674Z,508
2016-08-11T04:40:34.950Z,540
2016-08-11T04:41:35.674Z,580
2016-08-11T04:42:35.666Z,624
2016-08-11T04:43:35.665Z,664
2016-08-11T04:44:35.666Z,696
2016-08-11T04:45:35.663Z,728
2016-08-11T04:46:35.669Z,760
2016-08-11T04:47:35.675Z,788
2016-08-11T04:48:35.658Z,816
2016-08-11T04:49:35.660Z,848
2016-08-11T04:50:35.659Z,888
2016-08-11T04:51:35.655Z,924
2016-08-11T04:52:35.662Z,956
2016-08-11T04:53:35.658Z,1000
2016-08-11T04:54:35.650Z,1052
2016-08-11T04:55:35.651Z,1104
2016-08-11T04:56:35.654Z,1164
2016-08-11T04:57:35.647Z,1220
2016-08-11T04:58:35.655Z,1268
2016-08-11T04:59:35.651Z,1296
2016-08-11T05:00:35.641Z,1316
2016-08-11T05:01:35.644Z,1328
2016-08-11T05:02:35.652Z,1332
2016-08-11T05:03:35.639Z,1344
2016-08-11T05:04:35.642Z,1364
2016-08-11T05:05:35.634Z,1364
2016-08-11T05:06:35.635Z,1372
2016-08-11T05:07:35.634Z,1380
2016-08-11T05:08:35.637Z,1384
2016-08-11T05:09:35.631Z,1408
2016-08-11T05:10:35.631Z,1460
2016-08-11T05:11:35.626Z,1536
2016-08-11T05:12:35.626Z,1640
2016-08-11T05:13:35.623Z,1728
2016-08-11T05:14:35.626Z,1756
2016-08-11T05:15:35.622Z,1740
2016-08-11T05:16:35.619Z,1744
2016-08-11T05:17:35.626Z,1756
2016-08-11T05:18:35.619Z,1736
2016-08-11T05:19:35.631Z,1660
2016-08-11T05:20:35.615Z,1600
2016-08-11T05:21:35.615Z,1556
2016-08-11T05:22:35.635Z,1548
2016-08-11T05:23:35.615Z,1588
2016-08-11T05:24:35.611Z,1680
2016-08-11T05:25:35.610Z,1796
2016-08-11T05:26:35.608Z,1932
2016-08-11T05:27:35.607Z,2096
2016-08-11T05:28:35.607Z,2300
2016-08-11T05:29:35.603Z,2556
2016-08-11T05:30:35.599Z,2664
2016-08-11T05:31:35.612Z,2540
2016-08-11T05:32:35.599Z,2432
2016-08-11T05:33:35.600Z,2424
2016-08-11T05:34:35.599Z,2516
2016-08-11T05:35:35.595Z,2696
2016-08-11T05:36:35.596Z,2948
2016-08-11T05:37:35.595Z,3220
2016-08-11T05:38:35.592Z,3492
2016-08-11T05:39:35.592Z,3756
2016-08-11T05:40:35.592Z,3972
2016-08-11T05:41:35.592Z,4124
2016-08-11T05:42:35.588Z,4236
2016-08-11T05:43:35.588Z,4336
2016-08-11T05:44:35.588Z,4452
2016-08-11T05:45:35.589Z,4608
2016-08-11T05:46:35.604Z,4816
2016-08-11T05:47:35.589Z,5024
2016-08-11T05:48:35.595Z,5244
2016-08-11T05:49:35.581Z,5448
2016-08-11T05:50:35.576Z,5588
2016-08-11T05:51:35.581Z,5628
2016-08-11T05:52:35.579Z,5608
2016-08-11T05:53:35.573Z,5564
2016-08-11T05:54:35.576Z,5540
2016-08-11T05:55:35.576Z,5560
2016-08-11T05:56:35.576Z,5592
2016-08-11T05:57:35.572Z,5572
2016-08-11T05:58:35.584Z,5516
2016-08-11T05:59:35.585Z,5536
2016-08-11T06:00:35.571Z,5760
2016-08-11T06:01:35.569Z,9416
2016-08-11T06:02:35.576Z,8164
2016-08-11T06:03:35.568Z,7472
2016-08-11T06:04:35.568Z,10260
2016-08-11T06:05:35.717Z,15492
2016-08-11T06:06:36.368Z,24096
2016-08-11T06:07:35.580Z,24832
2016-08-11T06:08:35.564Z,26272
2016-08-11T06:09:35.593Z,26048
2016-08-11T06:10:35.566Z,26016
2016-08-11T06:11:35.577Z,27168
2016-08-11T06:12:35.565Z,27968
2016-08-11T06:13:35.568Z,28576
2016-08-11T06:14:35.564Z,28704
2016-08-11T06:15:35.564Z,28992
2016-08-11T06:16:35.565Z,29728
2016-08-11T06:17:35.577Z,28768
2016-08-11T06:18:35.568Z,30080
2016-08-11T06:19:35.569Z,29984
2016-08-11T06:20:35.572Z,28992
2016-08-11T06:21:35.572Z,29632
2016-08-11T06:22:35.576Z,30752
2016-08-11T06:23:35.574Z,31648
2016-08-11T06:24:35.577Z,32320
2016-08-11T06:25:35.577Z,32416
2016-08-11T06:26:35.581Z,31616
2016-08-11T06:27:35.586Z,33664
2016-08-11T06:28:35.588Z,33440
2016-08-11T06:29:35.598Z,33344
2016-08-11T06:30:35.590Z,33216
2016-08-11T06:31:35.593Z,33088
2016-08-11T06:32:35.597Z,34496
2016-08-11T06:33:35.601Z,35232
2016-08-11T06:34:35.602Z,34240
2016-08-11T06:35:35.609Z,33088
2016-08-11T06:36:34.889Z,33696
2016-08-11T06:37:35.614Z,35392
2016-08-11T06:38:35.618Z,36032
2016-08-11T06:39:35.622Z,36608
2016-08-11T06:40:35.621Z,36992
2016-08-11T06:41:35.625Z,36832
2016-08-11T06:42:35.634Z,37312
2016-08-11T06:43:35.638Z,40000
2016-08-11T06:44:35.638Z,40512
2016-08-11T06:45:35.647Z,39840
2016-08-11T06:46:35.659Z,38944
2016-08-11T06:47:35.653Z,36736
2016-08-11T06:48:35.662Z,35104
2016-08-11T06:49:35.667Z,34336
2016-08-11T06:50:35.674Z,32896
2016-08-11T06:51:35.670Z,31456
2016-08-11T06:52:35.679Z,30304
2016-08-11T06:53:35.691Z,28384
2016-08-11T06:54:35.686Z,31168
2016-08-11T06:55:35.698Z,32928
2016-08-11T06:56:35.706Z,29952
2016-08-11T06:57:35.851Z,29824
2016-08-11T06:58:35.719Z,28352
2016-08-11T06:59:35.714Z,24000
2016-08-11T07:00:35.718Z,22976
2016-08-11T07:01:35.722Z,22400
2016-08-11T07:02:35.731Z,22464
2016-08-11T07:03:35.734Z,23616
2016-08-11T07:04:35.743Z,25536
2016-08-11T07:05:35.747Z,27168
2016-08-11T07:06:37.367Z,28384
2016-08-11T07:07:35.759Z,31072
2016-08-11T07:08:35.766Z,34304
2016-08-11T07:09:35.771Z,38208
2016-08-11T07:10:35.791Z,41280
2016-08-11T07:11:35.783Z,43104
2016-08-11T07:12:35.790Z,43488
2016-08-11T07:13:35.799Z,42528
2016-08-11T07:14:35.803Z,42240
2016-08-11T07:15:35.807Z,41728
2016-08-11T07:16:35.827Z,37344
2016-08-11T07:17:35.820Z,39040
2016-08-11T07:18:35.827Z,41984
2016-08-11T07:19:35.120Z,42592
2016-08-11T07:20:35.859Z,42368
2016-08-11T07:21:35.848Z,40352
2016-08-11T07:22:35.858Z,38144
2016-08-11T07:23:35.867Z,38624
2016-08-11T07:24:35.871Z,41568
2016-08-11T07:25:35.884Z,41024
2016-08-11T07:26:35.887Z,39904
2016-08-11T07:27:35.896Z,41312
2016-08-11T07:28:35.903Z,42112
2016-08-11T07:29:35.440Z,42432
2016-08-11T07:30:35.923Z,41472
2016-08-11T07:31:35.919Z,41632
2016-08-11T07:32:35.928Z,42496
2016-08-11T07:33:35.933Z,41312
2016-08-11T07:34:35.944Z,40704
2016-08-11T07:35:35.947Z,41920
2016-08-11T07:36:35.961Z,41760
2016-08-11T07:37:35.965Z,42144
2016-08-11T07:38:35.984Z,42272
2016-08-11T07:39:35.984Z,42080
2016-08-11T07:40:35.989Z,41376
2016-08-11T07:41:35.997Z,40960
2016-08-11T07:42:36.000Z,40896
2016-08-11T07:43:36.009Z,41376
2016-08-11T07:44:35.557Z,43008
2016-08-11T07:45:36.024Z,42592
2016-08-11T07:46:36.041Z,44480
2016-08-11T07:47:36.043Z,44896
2016-08-11T07:48:36.048Z,44448
2016-08-11T07:49:36.056Z,42624
2016-08-11T07:50:36.071Z,41664
2016-08-11T07:51:36.083Z,40192
2016-08-11T07:52:36.086Z,40960
2016-08-11T07:53:36.245Z,37152
2016-08-11T07:54:36.097Z,15052
2016-08-11T07:55:36.104Z,19840
2016-08-11T07:56:36.117Z,31808
2016-08-11T07:57:36.121Z,46176
2016-08-11T07:58:36.129Z,43456
2016-08-11T07:59:35.689Z,48480
2016-08-11T08:00:36.149Z,48896
2016-08-11T08:01:36.157Z,17432
2016-08-11T08:02:36.167Z,39680
2016-08-11T08:03:36.172Z,48320
2016-08-11T08:04:36.181Z,47136
2016-08-11T08:05:36.221Z,45120
2016-08-11T08:06:36.297Z,48512
2016-08-11T08:07:35.484Z,49248
2016-08-11T08:08:36.216Z,47296
2016-08-11T08:09:36.229Z,46112
2016-08-11T08:10:36.538Z,27456
2016-08-11T08:11:36.247Z,9064
2016-08-11T08:12:36.249Z,8120
2016-08-11T08:13:36.273Z,7836
2016-08-11T08:14:35.341Z,7916
2016-08-11T08:15:36.273Z,8820
2016-08-11T08:16:36.293Z,14868
2016-08-11T08:17:36.289Z,13256
2016-08-11T08:18:36.297Z,48000
2016-08-11T08:19:36.306Z,44672
2016-08-11T08:20:36.314Z,37088
2016-08-11T08:21:36.317Z,21824
2016-08-11T08:22:36.335Z,10076
2016-08-11T08:23:36.342Z,9360
2016-08-11T08:24:36.342Z,9140
2016-08-11T08:25:36.350Z,8960
2016-08-11T08:26:36.359Z,8640
2016-08-11T08:27:36.370Z,8416
2016-08-11T08:28:36.417Z,8212
2016-08-11T08:29:35.462Z,8096
2016-08-11T08:30:36.390Z,7944
2016-08-11T08:31:36.393Z,7868
2016-08-11T08:32:36.402Z,7852
2016-08-11T08:33:35.689Z,7924
2016-08-11T08:34:36.418Z,8164
2016-08-11T08:35:36.426Z,8272
2016-08-11T08:36:36.434Z,8300
2016-08-11T08:37:36.442Z,8364
2016-08-11T08:38:36.450Z,8516
2016-08-11T08:39:36.459Z,8768
2016-08-11T08:40:36.474Z,9020
2016-08-11T08:41:36.495Z,8616
2016-08-11T08:42:36.482Z,8016
2016-08-11T08:43:36.490Z,8192
2016-08-11T08:44:35.574Z,8176
2016-08-11T08:45:36.503Z,7604
2016-08-11T08:46:36.510Z,8296
2016-08-11T08:47:36.518Z,9516
2016-08-11T08:48:36.526Z,10220
2016-08-11T08:49:36.539Z,10168
2016-08-11T08:50:36.542Z,10208
2016-08-11T08:51:36.546Z,9816
2016-08-11T08:52:36.554Z,8196
2016-08-11T08:53:36.567Z,7856
2016-08-11T08:54:36.570Z,9252
2016-08-11T08:55:36.574Z,9096
2016-08-11T08:56:35.865Z,9104
2016-08-11T08:57:36.598Z,9268
2016-08-11T08:58:36.598Z,9764
2016-08-11T08:59:35.219Z,9808
2016-08-11T09:00:36.610Z,9736
2016-08-11T09:01:36.623Z,9588
2016-08-11T09:02:36.626Z,8200
2016-08-11T09:03:36.630Z,7212
2016-08-11T09:04:36.639Z,6868
2016-08-11T09:05:36.652Z,6632
2016-08-11T09:06:36.654Z,6964
2016-08-11T09:07:36.658Z,7576
2016-08-11T09:08:35.947Z,7624
2016-08-11T09:09:36.670Z,7396
2016-08-11T09:10:36.879Z,8136
2016-08-11T09:11:36.682Z,7864
2016-08-11T09:12:36.690Z,7880
2016-08-11T09:13:36.715Z,7612
2016-08-11T09:14:35.310Z,7492
2016-08-11T09:15:36.711Z,7376
2016-08-11T09:16:36.714Z,7008
2016-08-11T09:17:36.727Z,6668
2016-08-11T09:18:36.734Z,6512
2016-08-11T09:19:36.735Z,6104
2016-08-11T09:20:36.739Z,5912
2016-08-11T09:21:36.746Z,5524
2016-08-11T09:22:36.746Z,5284
2016-08-11T09:23:36.759Z,5264
2016-08-11T09:24:36.760Z,5316
2016-08-11T09:25:36.771Z,5392
2016-08-11T09:26:36.776Z,5616
2016-08-11T09:27:36.799Z,5832
2016-08-11T09:28:36.787Z,5868
2016-08-11T09:30:36.804Z,6048
2016-08-11T09:31:36.804Z,6140
2016-08-11T09:32:36.812Z,6308
2016-08-11T09:33:36.816Z,6408
2016-08-11T09:34:36.099Z,6520
2016-08-11T09:35:36.840Z,6440
2016-08-11T09:36:36.835Z,6524
2016-08-11T09:37:36.853Z,6332
2016-08-11T09:38:36.996Z,6096
2016-08-11T09:39:36.847Z,5740
2016-08-11T09:40:36.855Z,5564
2016-08-11T09:41:36.860Z,4936
2016-08-11T09:42:36.864Z,4868
2016-08-11T09:43:36.871Z,5124
2016-08-11T09:45:36.880Z,4784
2016-08-11T09:46:36.888Z,4680
2016-08-11T09:47:36.889Z,4600
2016-08-11T09:48:36.897Z,4520
2016-08-11T09:49:36.900Z,4412
2016-08-11T09:50:36.912Z,4640
2016-08-11T09:51:36.908Z,4884
2016-08-11T09:52:36.916Z,4792
2016-08-11T09:53:36.921Z,4684
2016-08-11T09:54:36.924Z,4404
2016-08-11T09:55:36.932Z,4012
2016-08-11T09:56:36.933Z,3876
2016-08-11T09:57:36.940Z,3684
2016-08-11T09:58:36.940Z,3656
2016-08-11T10:00:36.953Z,3668
2016-08-11T10:01:36.957Z,4052
2016-08-11T10:02:36.961Z,4012
2016-08-11T10:03:36.965Z,3988
2016-08-11T10:04:36.973Z,4444
2016-08-11T10:05:36.975Z,4060
2016-08-11T10:06:37.045Z,4584
2016-08-11T10:07:36.989Z,4756
2016-08-11T10:08:36.989Z,4412
2016-08-11T10:09:37.005Z,4648
2016-08-11T10:10:36.997Z,4712
2016-08-11T10:11:37.000Z,4312
2016-08-11T10:12:37.004Z,4268
2016-08-11T10:13:37.013Z,4248
2016-08-11T10:15:37.017Z,3708
2016-08-11T10:16:37.021Z,3700
2016-08-11T10:17:37.038Z,3672
2016-08-11T10:18:37.029Z,3984
2016-08-11T10:19:37.033Z,3600
2016-08-11T10:20:37.039Z,3600
2016-08-11T10:21:37.041Z,3940
2016-08-11T10:22:37.050Z,4244
2016-08-11T10:23:37.049Z,4308
2016-08-11T10:24:37.057Z,4320
2016-08-11T10:25:37.064Z,4312
2016-08-11T10:26:37.065Z,4276
2016-08-11T10:27:37.064Z,4268
2016-08-11T10:28:37.069Z,4376
2016-08-11T10:30:37.081Z,4724
2016-08-11T10:31:36.361Z,5116
2016-08-11T10:32:37.093Z,5284
2016-08-11T10:33:37.090Z,5408
2016-08-11T10:34:37.094Z,5332
2016-08-11T10:35:36.382Z,5212
2016-08-11T10:36:37.101Z,4932
2016-08-11T10:37:37.105Z,4800
2016-08-11T10:38:37.109Z,4748
2016-08-11T10:39:37.117Z,4724
2016-08-11T10:40:37.121Z,4708
2016-08-11T10:41:37.125Z,4792
2016-08-11T10:42:37.134Z,4752
2016-08-11T10:43:37.137Z,4812
2016-08-11T10:45:37.138Z,5120
2016-08-11T10:46:37.141Z,5144
2016-08-11T10:47:37.146Z,5144
2016-08-11T10:48:37.153Z,5156
2016-08-11T10:49:37.149Z,5096
2016-08-11T10:50:37.158Z,5084
2016-08-11T10:51:37.157Z,5096
2016-08-11T10:52:37.165Z,5140
2016-08-11T10:53:37.179Z,5104
2016-08-11T10:54:37.170Z,5060
2016-08-11T10:55:37.174Z,5032
2016-08-11T10:56:37.184Z,4940
2016-08-11T10:57:37.182Z,4932
2016-08-11T10:58:37.185Z,5144
2016-08-11T10:59:37.194Z,5412
2016-08-11T11:00:37.194Z,5540
2016-08-11T11:01:37.197Z,5456
2016-08-11T11:02:37.198Z,5192
2016-08-11T11:03:37.206Z,5264
2016-08-11T11:04:37.206Z,5532
2016-08-11T11:05:36.494Z,5696
2016-08-11T11:06:37.215Z,5716
2016-08-11T11:07:37.222Z,5708
2016-08-11T11:08:37.223Z,5552
2016-08-11T11:09:36.512Z,5156
2016-08-11T11:10:37.230Z,4832
2016-08-11T11:11:37.230Z,4564
2016-08-11T11:12:37.246Z,4272
2016-08-11T11:13:37.238Z,3976
2016-08-11T11:14:37.243Z,3752
2016-08-11T11:15:37.247Z,3660
2016-08-11T11:16:37.253Z,3736
2016-08-11T11:17:37.267Z,4160
2016-08-11T11:18:37.263Z,4464
2016-08-11T11:19:37.263Z,4472
2016-08-11T11:20:37.267Z,4380
2016-08-11T11:21:37.279Z,4292
2016-08-11T11:22:36.559Z,4264
2016-08-11T11:23:37.279Z,4292
2016-08-11T11:24:37.279Z,4188
2016-08-11T11:25:37.282Z,4284
2016-08-11T11:26:37.296Z,4368
2016-08-11T11:27:37.304Z,4452
2016-08-11T11:28:37.295Z,4500
2016-08-11T11:29:37.309Z,4508
2016-08-11T11:30:37.323Z,4504
2016-08-11T11:31:37.312Z,4488
2016-08-11T11:32:37.312Z,4484
2016-08-11T11:33:37.312Z,4376
2016-08-11T11:34:37.315Z,4576
2016-08-11T11:35:37.315Z,4440
2016-08-11T11:36:37.320Z,3908
2016-08-11T11:37:37.323Z,3752
2016-08-11T11:38:37.328Z,3668
2016-08-11T11:39:37.332Z,4284
2016-08-11T11:40:37.332Z,3760
2016-08-11T11:41:37.340Z,4192
2016-08-11T11:42:37.339Z,4144
2016-08-11T11:43:37.345Z,4116
2016-08-11T11:44:37.349Z,4320
2016-08-11T11:45:37.351Z,4444
2016-08-11T11:46:37.353Z,4364
2016-08-11T11:47:37.356Z,4220
2016-08-11T11:48:37.359Z,4024
2016-08-11T11:49:37.364Z,3944
2016-08-11T11:50:37.367Z,3896
2016-08-11T11:51:37.368Z,3848
2016-08-11T11:52:37.373Z,3840
2016-08-11T11:53:37.376Z,3872
2016-08-11T11:54:37.375Z,3928
2016-08-11T11:55:37.401Z,4012
2016-08-11T11:56:37.389Z,4064
2016-08-11T11:57:37.389Z,3792
2016-08-11T11:58:37.392Z,3976
2016-08-11T11:59:37.396Z,3952
2016-08-11T12:00:37.404Z,3860
2016-08-11T12:01:37.405Z,3832
2016-08-11T12:02:36.692Z,3760
2016-08-11T12:03:37.405Z,3804
2016-08-11T12:04:37.413Z,3880
2016-08-11T12:05:37.417Z,3840
2016-08-11T12:06:37.416Z,3828
2016-08-11T12:07:37.421Z,3680
2016-08-11T12:08:37.426Z,3624
2016-08-11T12:09:37.429Z,3732
2016-08-11T12:10:37.428Z,3916
2016-08-11T12:11:37.433Z,4120
2016-08-11T12:12:37.442Z,4284
2016-08-11T12:13:37.441Z,4324
2016-08-11T12:14:37.453Z,4360
2016-08-11T12:15:37.445Z,4468
2016-08-11T12:16:37.453Z,4456
2016-08-11T12:17:37.458Z,4204
2016-08-11T12:18:37.453Z,3888
2016-08-11T12:19:37.472Z,3536
2016-08-11T12:20:37.475Z,3364
2016-08-11T12:21:37.505Z,3284
2016-08-11T12:22:37.477Z,3196
2016-08-11T12:23:37.472Z,3024
2016-08-11T12:24:37.474Z,2928
2016-08-11T12:25:37.476Z,2868
2016-08-11T12:26:37.480Z,2816
2016-08-11T12:27:37.497Z,2764
2016-08-11T12:28:37.485Z,2744
2016-08-11T12:29:37.497Z,2748
2016-08-11T12:30:37.493Z,2756
2016-08-11T12:31:37.494Z,2716
2016-08-11T12:32:37.499Z,2712
2016-08-11T12:33:37.501Z,2716
2016-08-11T12:34:37.505Z,2648
2016-08-11T12:35:37.505Z,2628
2016-08-11T12:36:37.518Z,2652
2016-08-11T12:37:37.526Z,2620
2016-08-11T12:38:37.517Z,2604
2016-08-11T12:39:37.517Z,2576
2016-08-11T12:40:37.521Z,2564
2016-08-11T12:41:37.529Z,2516
2016-08-11T12:42:37.525Z,2500
2016-08-11T12:43:37.530Z,2520
2016-08-11T12:44:37.533Z,2512
2016-08-11T12:45:37.533Z,2448
2016-08-11T12:46:37.542Z,2392
2016-08-11T12:47:37.542Z,2396
2016-08-11T12:48:37.542Z,2416
2016-08-11T12:49:37.546Z,2404
2016-08-11T12:50:37.549Z,2384
2016-08-11T12:51:37.553Z,2372
2016-08-11T12:52:37.566Z,2348
2016-08-11T12:53:37.557Z,2348
2016-08-11T12:54:37.563Z,2336
2016-08-11T12:55:37.586Z,2324
2016-08-11T12:56:37.566Z,2308
2016-08-11T12:57:37.570Z,2304
2016-08-11T12:58:36.869Z,2304
2016-08-11T12:59:37.583Z,2296
2016-08-11T13:00:37.118Z,2292
2016-08-11T13:01:37.578Z,2288
2016-08-11T13:02:37.589Z,2288
2016-08-11T13:03:37.586Z,2272
2016-08-11T13:04:37.590Z,2244
2016-08-11T13:05:37.590Z,2224
2016-08-11T13:06:37.598Z,2204
2016-08-11T13:07:37.594Z,2168
2016-08-11T13:08:37.599Z,2164
2016-08-11T13:09:37.606Z,2152
2016-08-11T13:10:37.623Z,2160
2016-08-11T13:11:37.606Z,2180
2016-08-11T13:12:37.607Z,2188
2016-08-11T13:13:37.614Z,2180
2016-08-11T13:14:37.615Z,2156
2016-08-11T13:15:37.627Z,2132
2016-08-11T13:16:37.619Z,2128
2016-08-11T13:17:37.623Z,2128
2016-08-11T13:18:37.623Z,2128
2016-08-11T13:19:37.626Z,2120
2016-08-11T13:20:37.631Z,2112
2016-08-11T13:21:37.631Z,2108
2016-08-11T13:22:37.630Z,2104
2016-08-11T13:23:37.635Z,2116
2016-08-11T13:24:37.638Z,2132
2016-08-11T13:25:37.659Z,2136
2016-08-11T13:26:37.651Z,2120
2016-08-11T13:27:37.647Z,2100
2016-08-11T13:28:37.672Z,2072
2016-08-11T13:29:37.664Z,2048
2016-08-11T13:30:37.654Z,2024
2016-08-11T13:31:37.655Z,2012
2016-08-11T13:32:37.660Z,2008
2016-08-11T13:33:37.659Z,2004
2016-08-11T13:34:37.663Z,1992
2016-08-11T13:35:37.667Z,1996
2016-08-11T13:36:37.668Z,2000
2016-08-11T13:37:37.676Z,2004
2016-08-11T13:38:37.671Z,1996
2016-08-11T13:39:37.684Z,1952
2016-08-11T13:40:37.680Z,1988
2016-08-11T13:41:37.679Z,1988
2016-08-11T13:42:37.687Z,1988
2016-08-11T13:43:37.684Z,1988
2016-08-11T13:44:37.687Z,1992
2016-08-11T13:45:36.764Z,1988
2016-08-11T13:46:37.693Z,1932
2016-08-11T13:47:37.696Z,1980
2016-08-11T13:48:37.696Z,1960
2016-08-11T13:49:37.700Z,1952